sensor_id;sensor_type;location;lat;lon;timestamp;P1;durP1;ratioP1;P2;durP2;ratioP2
61477;SDS011;47345;52.334;10.392;2023-06-19T00:01:30;6.30;;;3.50;;
61477;SDS011;47345;52.334;10.392;2023-06-19T00:04:01;3.90;;;3.50;;
61477;SDS011;47345;52.334;10.392;2023-06-19T00:06:32;5.50;;;3.90;;
61477;SDS011;47345;52.334;10.392;2023-06-19T00:09:03;4.00;;;3.50;;
61477;SDS011;47345;52.334;10.392;2023-06-19T00:11:35;3.90;;;3.50;;
61477;SDS011;47345;52.334;10.392;2023-06-19T00:14:06;6.70;;;3.60;;
61477;SDS011;47345;52.334;10.392;2023-06-19T00:16:36;7.40;;;4.00;;
61477;SDS011;47345;52.334;10.392;2023-06-19T00:19:08;4.90;;;3.70;;
61477;SDS011;47345;52.334;10.392;2023-06-19T00:21:39;4.20;;;3.40;;
61477;SDS011;47345;52.334;10.392;2023-06-19T00:24:11;4.80;;;4.00;;
61477;SDS011;47345;52.334;10.392;2023-06-19T00:26:42;5.00;;;3.60;;
61477;SDS011;47345;52.334;10.392;2023-06-19T00:29:13;4.20;;;3.80;;
61477;SDS011;47345;52.334;10.392;2023-06-19T00:31:43;9.00;;;4.00;;
61477;SDS011;47345;52.334;10.392;2023-06-19T00:34:14;4.50;;;3.70;;
61477;SDS011;47345;52.334;10.392;2023-06-19T00:36:45;4.70;;;3.80;;
61477;SDS011;47345;52.334;10.392;2023-06-19T00:39:16;5.40;;;4.00;;
61477;SDS011;47345;52.334;10.392;2023-06-19T00:41:47;4.30;;;3.80;;
61477;SDS011;47345;52.334;10.392;2023-06-19T00:44:18;4.40;;;3.70;;
61477;SDS011;47345;52.334;10.392;2023-06-19T00:46:51;4.00;;;3.60;;
61477;SDS011;47345;52.334;10.392;2023-06-19T00:49:28;4.80;;;3.70;;
61477;SDS011;47345;52.334;10.392;2023-06-19T00:51:59;5.00;;;4.30;;
61477;SDS011;47345;52.334;10.392;2023-06-19T00:54:30;4.20;;;3.60;;
61477;SDS011;47345;52.334;10.392;2023-06-19T00:57:02;4.50;;;3.70;;
61477;SDS011;47345;52.334;10.392;2023-06-19T00:59:34;13.20;;;4.00;;
61477;SDS011;47345;52.334;10.392;2023-06-19T01:02:05;4.60;;;3.70;;
61477;SDS011;47345;52.334;10.392;2023-06-19T01:04:37;9.70;;;4.00;;
61477;SDS011;47345;52.334;10.392;2023-06-19T01:07:09;4.30;;;3.60;;
61477;SDS011;47345;52.334;10.392;2023-06-19T01:09:44;7.40;;;4.00;;
61477;SDS011;47345;52.334;10.392;2023-06-19T01:12:22;7.60;;;3.60;;
61477;SDS011;47345;52.334;10.392;2023-06-19T01:14:58;4.90;;;3.60;;
61477;SDS011;47345;52.334;10.392;2023-06-19T01:17:31;5.30;;;3.90;;
61477;SDS011;47345;52.334;10.392;2023-06-19T01:20:05;7.10;;;3.80;;
61477;SDS011;47345;52.334;10.392;2023-06-19T01:22:39;6.30;;;4.00;;
61477;SDS011;47345;52.334;10.392;2023-06-19T01:25:11;4.00;;;3.60;;
61477;SDS011;47345;52.334;10.392;2023-06-19T01:27:42;4.20;;;3.80;;
61477;SDS011;47345;52.334;10.392;2023-06-19T01:30:14;4.80;;;3.90;;
61477;SDS011;47345;52.334;10.392;2023-06-19T01:32:47;5.30;;;3.60;;
61477;SDS011;47345;52.334;10.392;2023-06-19T01:35:23;4.70;;;3.80;;
61477;SDS011;47345;52.334;10.392;2023-06-19T01:37:57;4.00;;;3.60;;
61477;SDS011;47345;52.334;10.392;2023-06-19T01:40:28;4.30;;;3.60;;
61477;SDS011;47345;52.334;10.392;2023-06-19T01:43:01;6.10;;;3.80;;
61477;SDS011;47345;52.334;10.392;2023-06-19T01:45:33;4.80;;;4.00;;
61477;SDS011;47345;52.334;10.392;2023-06-19T01:48:04;5.90;;;3.60;;
61477;SDS011;47345;52.334;10.392;2023-06-19T01:50:36;6.10;;;3.70;;
61477;SDS011;47345;52.334;10.392;2023-06-19T01:53:07;5.70;;;4.00;;
61477;SDS011;47345;52.334;10.392;2023-06-19T01:55:38;3.90;;;3.40;;
61477;SDS011;47345;52.334;10.392;2023-06-19T01:58:09;4.50;;;3.80;;
61477;SDS011;47345;52.334;10.392;2023-06-19T02:00:40;4.10;;;3.40;;
61477;SDS011;47345;52.334;10.392;2023-06-19T02:03:11;4.00;;;3.50;;
61477;SDS011;47345;52.334;10.392;2023-06-19T02:05:42;4.90;;;3.80;;
61477;SDS011;47345;52.334;10.392;2023-06-19T02:08:13;4.50;;;3.70;;
61477;SDS011;47345;52.334;10.392;2023-06-19T02:10:44;5.00;;;3.80;;
61477;SDS011;47345;52.334;10.392;2023-06-19T02:13:15;3.90;;;3.40;;
61477;SDS011;47345;52.334;10.392;2023-06-19T02:15:47;4.50;;;3.60;;
61477;SDS011;47345;52.334;10.392;2023-06-19T02:18:17;4.40;;;3.70;;
61477;SDS011;47345;52.334;10.392;2023-06-19T02:20:48;4.00;;;3.50;;
61477;SDS011;47345;52.334;10.392;2023-06-19T02:23:19;5.40;;;3.80;;
61477;SDS011;47345;52.334;10.392;2023-06-19T02:25:50;4.20;;;3.60;;
61477;SDS011;47345;52.334;10.392;2023-06-19T02:28:21;5.30;;;3.60;;
61477;SDS011;47345;52.334;10.392;2023-06-19T02:30:52;4.20;;;3.70;;
61477;SDS011;47345;52.334;10.392;2023-06-19T02:33:23;4.20;;;3.50;;
61477;SDS011;47345;52.334;10.392;2023-06-19T02:35:54;4.00;;;3.60;;
61477;SDS011;47345;52.334;10.392;2023-06-19T02:38:27;6.40;;;4.30;;
61477;SDS011;47345;52.334;10.392;2023-06-19T02:40:58;4.40;;;3.70;;
61477;SDS011;47345;52.334;10.392;2023-06-19T02:43:29;3.90;;;3.40;;
61477;SDS011;47345;52.334;10.392;2023-06-19T02:46:00;4.10;;;3.60;;
61477;SDS011;47345;52.334;10.392;2023-06-19T02:48:31;4.20;;;3.50;;
61477;SDS011;47345;52.334;10.392;2023-06-19T02:51:02;5.20;;;3.80;;
61477;SDS011;47345;52.334;10.392;2023-06-19T02:53:33;6.60;;;4.10;;
61477;SDS011;47345;52.334;10.392;2023-06-19T02:56:03;5.00;;;3.90;;
61477;SDS011;47345;52.334;10.392;2023-06-19T02:58:35;6.80;;;4.00;;
61477;SDS011;47345;52.334;10.392;2023-06-19T03:01:06;4.80;;;3.90;;
61477;SDS011;47345;52.334;10.392;2023-06-19T03:03:36;5.10;;;3.70;;
61477;SDS011;47345;52.334;10.392;2023-06-19T03:06:08;4.90;;;3.90;;
61477;SDS011;47345;52.334;10.392;2023-06-19T03:08:41;8.90;;;3.90;;
61477;SDS011;47345;52.334;10.392;2023-06-19T03:11:12;5.60;;;3.90;;
61477;SDS011;47345;52.334;10.392;2023-06-19T03:13:46;5.80;;;3.90;;
61477;SDS011;47345;52.334;10.392;2023-06-19T03:16:19;9.00;;;4.20;;
61477;SDS011;47345;52.334;10.392;2023-06-19T03:18:50;5.00;;;3.90;;
61477;SDS011;47345;52.334;10.392;2023-06-19T03:21:21;4.20;;;3.60;;
61477;SDS011;47345;52.334;10.392;2023-06-19T03:23:52;4.70;;;4.10;;
61477;SDS011;47345;52.334;10.392;2023-06-19T03:26:23;5.10;;;4.00;;
61477;SDS011;47345;52.334;10.392;2023-06-19T03:28:54;7.50;;;4.20;;
61477;SDS011;47345;52.334;10.392;2023-06-19T03:31:25;5.80;;;3.80;;
61477;SDS011;47345;52.334;10.392;2023-06-19T03:33:56;6.70;;;4.10;;
61477;SDS011;47345;52.334;10.392;2023-06-19T03:36:26;4.20;;;3.80;;
61477;SDS011;47345;52.334;10.392;2023-06-19T03:38:57;4.70;;;3.90;;
61477;SDS011;47345;52.334;10.392;2023-06-19T03:41:28;5.30;;;3.80;;
61477;SDS011;47345;52.334;10.392;2023-06-19T03:43:59;4.90;;;4.10;;
61477;SDS011;47345;52.334;10.392;2023-06-19T03:46:29;6.70;;;4.20;;
61477;SDS011;47345;52.334;10.392;2023-06-19T03:49:00;4.90;;;4.10;;
61477;SDS011;47345;52.334;10.392;2023-06-19T03:51:32;6.50;;;3.80;;
61477;SDS011;47345;52.334;10.392;2023-06-19T03:54:03;4.90;;;3.90;;
61477;SDS011;47345;52.334;10.392;2023-06-19T03:56:34;7.60;;;5.30;;
61477;SDS011;47345;52.334;10.392;2023-06-19T03:59:04;5.70;;;5.00;;
61477;SDS011;47345;52.334;10.392;2023-06-19T04:01:35;7.20;;;3.80;;
61477;SDS011;47345;52.334;10.392;2023-06-19T04:04:06;6.00;;;4.40;;
61477;SDS011;47345;52.334;10.392;2023-06-19T04:06:37;5.80;;;4.40;;
61477;SDS011;47345;52.334;10.392;2023-06-19T04:09:08;5.80;;;3.90;;
61477;SDS011;47345;52.334;10.392;2023-06-19T04:11:39;5.80;;;4.20;;
61477;SDS011;47345;52.334;10.392;2023-06-19T04:14:09;7.90;;;4.10;;
61477;SDS011;47345;52.334;10.392;2023-06-19T04:16:40;6.40;;;4.40;;
61477;SDS011;47345;52.334;10.392;2023-06-19T04:19:11;7.10;;;4.40;;
61477;SDS011;47345;52.334;10.392;2023-06-19T04:21:42;5.10;;;4.10;;
61477;SDS011;47345;52.334;10.392;2023-06-19T04:24:12;5.00;;;4.20;;
61477;SDS011;47345;52.334;10.392;2023-06-19T04:26:43;5.40;;;4.00;;
61477;SDS011;47345;52.334;10.392;2023-06-19T04:29:14;5.40;;;4.40;;
61477;SDS011;47345;52.334;10.392;2023-06-19T04:31:45;8.00;;;4.80;;
61477;SDS011;47345;52.334;10.392;2023-06-19T04:34:16;6.10;;;4.50;;
61477;SDS011;47345;52.334;10.392;2023-06-19T04:36:48;6.10;;;4.60;;
61477;SDS011;47345;52.334;10.392;2023-06-19T04:39:19;8.30;;;4.90;;
61477;SDS011;47345;52.334;10.392;2023-06-19T04:41:50;6.20;;;5.00;;
61477;SDS011;47345;52.334;10.392;2023-06-19T04:44:21;6.90;;;4.60;;
61477;SDS011;47345;52.334;10.392;2023-06-19T04:46:52;7.60;;;4.90;;
61477;SDS011;47345;52.334;10.392;2023-06-19T04:49:29;5.30;;;4.60;;
61477;SDS011;47345;52.334;10.392;2023-06-19T04:51:59;5.10;;;4.40;;
61477;SDS011;47345;52.334;10.392;2023-06-19T04:54:30;8.20;;;4.50;;
61477;SDS011;47345;52.334;10.392;2023-06-19T04:57:01;5.50;;;4.50;;
61477;SDS011;47345;52.334;10.392;2023-06-19T04:59:33;5.50;;;4.40;;
61477;SDS011;47345;52.334;10.392;2023-06-19T05:02:04;4.80;;;4.30;;
61477;SDS011;47345;52.334;10.392;2023-06-19T05:04:35;5.30;;;4.10;;
61477;SDS011;47345;52.334;10.392;2023-06-19T05:07:06;5.90;;;4.40;;
61477;SDS011;47345;52.334;10.392;2023-06-19T05:09:38;6.10;;;4.70;;
61477;SDS011;47345;52.334;10.392;2023-06-19T05:12:09;6.40;;;4.10;;
61477;SDS011;47345;52.334;10.392;2023-06-19T05:14:40;6.00;;;4.50;;
61477;SDS011;47345;52.334;10.392;2023-06-19T05:17:11;6.50;;;4.90;;
61477;SDS011;47345;52.334;10.392;2023-06-19T05:19:42;7.30;;;4.80;;
61477;SDS011;47345;52.334;10.392;2023-06-19T05:22:13;6.60;;;5.10;;
61477;SDS011;47345;52.334;10.392;2023-06-19T05:24:46;6.60;;;4.80;;
61477;SDS011;47345;52.334;10.392;2023-06-19T05:27:17;5.40;;;4.50;;
61477;SDS011;47345;52.334;10.392;2023-06-19T05:29:48;6.40;;;5.00;;
61477;SDS011;47345;52.334;10.392;2023-06-19T05:32:20;5.90;;;4.80;;
61477;SDS011;47345;52.334;10.392;2023-06-19T05:34:51;7.30;;;4.90;;
61477;SDS011;47345;52.334;10.392;2023-06-19T05:37:22;8.40;;;5.30;;
61477;SDS011;47345;52.334;10.392;2023-06-19T05:39:55;7.80;;;4.90;;
61477;SDS011;47345;52.334;10.392;2023-06-19T05:42:26;6.40;;;4.70;;
61477;SDS011;47345;52.334;10.392;2023-06-19T05:44:56;9.20;;;4.90;;
61477;SDS011;47345;52.334;10.392;2023-06-19T05:47:27;5.80;;;4.50;;
61477;SDS011;47345;52.334;10.392;2023-06-19T05:49:58;6.80;;;5.10;;
61477;SDS011;47345;52.334;10.392;2023-06-19T05:52:29;6.80;;;4.70;;
61477;SDS011;47345;52.334;10.392;2023-06-19T05:55:00;9.20;;;4.70;;
61477;SDS011;47345;52.334;10.392;2023-06-19T05:57:31;6.60;;;5.50;;
61477;SDS011;47345;52.334;10.392;2023-06-19T06:00:02;11.20;;;5.20;;
61477;SDS011;47345;52.334;10.392;2023-06-19T06:02:34;6.20;;;5.10;;
61477;SDS011;47345;52.334;10.392;2023-06-19T06:05:07;8.10;;;5.00;;
61477;SDS011;47345;52.334;10.392;2023-06-19T06:07:38;7.10;;;4.70;;
61477;SDS011;47345;52.334;10.392;2023-06-19T06:10:10;7.90;;;5.50;;
61477;SDS011;47345;52.334;10.392;2023-06-19T06:12:41;7.50;;;5.30;;
61477;SDS011;47345;52.334;10.392;2023-06-19T06:15:12;7.00;;;5.10;;
61477;SDS011;47345;52.334;10.392;2023-06-19T06:17:43;7.30;;;5.00;;
61477;SDS011;47345;52.334;10.392;2023-06-19T06:20:14;6.10;;;4.60;;
61477;SDS011;47345;52.334;10.392;2023-06-19T06:22:45;5.90;;;5.10;;
61477;SDS011;47345;52.334;10.392;2023-06-19T06:25:16;11.30;;;5.40;;
61477;SDS011;47345;52.334;10.392;2023-06-19T06:27:46;8.40;;;5.10;;
61477;SDS011;47345;52.334;10.392;2023-06-19T06:30:17;6.50;;;4.90;;
61477;SDS011;47345;52.334;10.392;2023-06-19T06:32:48;9.10;;;5.10;;
61477;SDS011;47345;52.334;10.392;2023-06-19T06:35:19;5.50;;;4.70;;
61477;SDS011;47345;52.334;10.392;2023-06-19T06:37:50;10.30;;;4.50;;
61477;SDS011;47345;52.334;10.392;2023-06-19T06:40:21;6.70;;;4.40;;
61477;SDS011;47345;52.334;10.392;2023-06-19T06:42:52;8.10;;;5.40;;
61477;SDS011;47345;52.334;10.392;2023-06-19T06:45:23;6.90;;;4.90;;
61477;SDS011;47345;52.334;10.392;2023-06-19T06:47:55;8.70;;;5.10;;
61477;SDS011;47345;52.334;10.392;2023-06-19T06:50:26;6.40;;;4.80;;
61477;SDS011;47345;52.334;10.392;2023-06-19T06:53:00;7.20;;;5.20;;
61477;SDS011;47345;52.334;10.392;2023-06-19T06:55:30;6.40;;;4.70;;
61477;SDS011;47345;52.334;10.392;2023-06-19T06:58:01;9.00;;;5.00;;
61477;SDS011;47345;52.334;10.392;2023-06-19T07:00:32;5.00;;;4.20;;
61477;SDS011;47345;52.334;10.392;2023-06-19T07:03:03;5.20;;;4.60;;
61477;SDS011;47345;52.334;10.392;2023-06-19T07:05:34;5.30;;;4.40;;
61477;SDS011;47345;52.334;10.392;2023-06-19T07:08:05;7.40;;;4.30;;
61477;SDS011;47345;52.334;10.392;2023-06-19T07:10:36;5.20;;;4.40;;
61477;SDS011;47345;52.334;10.392;2023-06-19T07:13:06;11.00;;;4.60;;
61477;SDS011;47345;52.334;10.392;2023-06-19T07:15:37;5.20;;;4.30;;
61477;SDS011;47345;52.334;10.392;2023-06-19T07:18:08;4.70;;;4.20;;
61477;SDS011;47345;52.334;10.392;2023-06-19T07:20:39;5.90;;;4.30;;
61477;SDS011;47345;52.334;10.392;2023-06-19T07:23:10;6.40;;;4.30;;
61477;SDS011;47345;52.334;10.392;2023-06-19T07:25:41;5.40;;;4.50;;
61477;SDS011;47345;52.334;10.392;2023-06-19T07:28:15;5.60;;;4.10;;
61477;SDS011;47345;52.334;10.392;2023-06-19T07:30:45;6.90;;;4.50;;
61477;SDS011;47345;52.334;10.392;2023-06-19T07:33:17;8.00;;;4.30;;
61477;SDS011;47345;52.334;10.392;2023-06-19T07:35:48;5.70;;;4.30;;
61477;SDS011;47345;52.334;10.392;2023-06-19T07:38:18;6.20;;;4.30;;
61477;SDS011;47345;52.334;10.392;2023-06-19T07:40:50;6.80;;;4.60;;
61477;SDS011;47345;52.334;10.392;2023-06-19T07:43:20;4.70;;;4.20;;
61477;SDS011;47345;52.334;10.392;2023-06-19T07:45:51;6.30;;;4.90;;
61477;SDS011;47345;52.334;10.392;2023-06-19T07:48:22;7.10;;;4.70;;
61477;SDS011;47345;52.334;10.392;2023-06-19T07:50:53;5.80;;;4.20;;
61477;SDS011;47345;52.334;10.392;2023-06-19T07:53:25;6.00;;;4.80;;
61477;SDS011;47345;52.334;10.392;2023-06-19T07:55:55;5.40;;;4.60;;
61477;SDS011;47345;52.334;10.392;2023-06-19T07:58:27;6.00;;;4.90;;
61477;SDS011;47345;52.334;10.392;2023-06-19T08:00:59;6.90;;;4.70;;
61477;SDS011;47345;52.334;10.392;2023-06-19T08:03:29;6.00;;;4.60;;
61477;SDS011;47345;52.334;10.392;2023-06-19T08:06:00;5.00;;;4.40;;
61477;SDS011;47345;52.334;10.392;2023-06-19T08:08:31;5.30;;;4.60;;
61477;SDS011;47345;52.334;10.392;2023-06-19T08:11:02;7.70;;;4.50;;
61477;SDS011;47345;52.334;10.392;2023-06-19T08:13:32;6.70;;;4.20;;
61477;SDS011;47345;52.334;10.392;2023-06-19T08:16:03;5.90;;;4.80;;
61477;SDS011;47345;52.334;10.392;2023-06-19T08:18:35;6.40;;;4.90;;
61477;SDS011;47345;52.334;10.392;2023-06-19T08:21:05;6.80;;;4.90;;
61477;SDS011;47345;52.334;10.392;2023-06-19T08:23:37;5.20;;;4.50;;
61477;SDS011;47345;52.334;10.392;2023-06-19T08:26:11;7.70;;;4.60;;
61477;SDS011;47345;52.334;10.392;2023-06-19T08:28:42;6.40;;;4.20;;
61477;SDS011;47345;52.334;10.392;2023-06-19T08:31:13;7.10;;;4.90;;
61477;SDS011;47345;52.334;10.392;2023-06-19T08:33:46;6.80;;;4.60;;
61477;SDS011;47345;52.334;10.392;2023-06-19T08:36:21;6.80;;;4.70;;
61477;SDS011;47345;52.334;10.392;2023-06-19T08:38:52;9.10;;;4.80;;
61477;SDS011;47345;52.334;10.392;2023-06-19T08:41:23;6.70;;;4.70;;
61477;SDS011;47345;52.334;10.392;2023-06-19T08:43:54;6.40;;;4.50;;
61477;SDS011;47345;52.334;10.392;2023-06-19T08:46:25;8.60;;;5.60;;
61477;SDS011;47345;52.334;10.392;2023-06-19T08:48:56;8.70;;;5.60;;
61477;SDS011;47345;52.334;10.392;2023-06-19T08:51:28;7.50;;;5.30;;
61477;SDS011;47345;52.334;10.392;2023-06-19T08:54:02;8.20;;;4.90;;
61477;SDS011;47345;52.334;10.392;2023-06-19T08:56:34;6.40;;;4.80;;
61477;SDS011;47345;52.334;10.392;2023-06-19T08:59:08;6.10;;;4.50;;
61477;SDS011;47345;52.334;10.392;2023-06-19T09:01:45;7.60;;;4.80;;
61477;SDS011;47345;52.334;10.392;2023-06-19T09:04:20;5.70;;;4.30;;
61477;SDS011;47345;52.334;10.392;2023-06-19T09:06:51;7.30;;;4.60;;
61477;SDS011;47345;52.334;10.392;2023-06-19T09:09:24;5.40;;;4.00;;
61477;SDS011;47345;52.334;10.392;2023-06-19T09:11:58;5.60;;;4.50;;
61477;SDS011;47345;52.334;10.392;2023-06-19T09:14:33;5.40;;;4.30;;
61477;SDS011;47345;52.334;10.392;2023-06-19T09:17:06;7.10;;;4.10;;
61477;SDS011;47345;52.334;10.392;2023-06-19T09:19:48;8.80;;;5.00;;
61477;SDS011;47345;52.334;10.392;2023-06-19T09:22:20;5.50;;;4.20;;
61477;SDS011;47345;52.334;10.392;2023-06-19T09:24:52;5.10;;;4.30;;
61477;SDS011;47345;52.334;10.392;2023-06-19T09:27:31;5.20;;;3.90;;
61477;SDS011;47345;52.334;10.392;2023-06-19T09:30:02;5.60;;;3.90;;
61477;SDS011;47345;52.334;10.392;2023-06-19T09:32:36;6.50;;;3.50;;
61477;SDS011;47345;52.334;10.392;2023-06-19T09:35:07;6.10;;;4.20;;
61477;SDS011;47345;52.334;10.392;2023-06-19T09:37:38;6.20;;;4.10;;
61477;SDS011;47345;52.334;10.392;2023-06-19T09:40:11;4.60;;;4.00;;
61477;SDS011;47345;52.334;10.392;2023-06-19T09:42:42;4.60;;;4.00;;
61477;SDS011;47345;52.334;10.392;2023-06-19T09:45:14;5.20;;;3.60;;
61477;SDS011;47345;52.334;10.392;2023-06-19T09:47:47;3.50;;;3.20;;
61477;SDS011;47345;52.334;10.392;2023-06-19T09:50:22;3.70;;;3.40;;
61477;SDS011;47345;52.334;10.392;2023-06-19T09:52:55;4.20;;;3.30;;
61477;SDS011;47345;52.334;10.392;2023-06-19T09:55:26;3.60;;;3.10;;
61477;SDS011;47345;52.334;10.392;2023-06-19T09:57:58;4.00;;;3.30;;
61477;SDS011;47345;52.334;10.392;2023-06-19T10:00:31;4.50;;;3.90;;
61477;SDS011;47345;52.334;10.392;2023-06-19T10:03:03;4.70;;;3.50;;
61477;SDS011;47345;52.334;10.392;2023-06-19T10:05:40;4.90;;;3.60;;
61477;SDS011;47345;52.334;10.392;2023-06-19T10:08:11;4.20;;;3.50;;
61477;SDS011;47345;52.334;10.392;2023-06-19T10:10:47;4.20;;;3.60;;
61477;SDS011;47345;52.334;10.392;2023-06-19T10:13:18;4.00;;;3.40;;
61477;SDS011;47345;52.334;10.392;2023-06-19T10:15:49;5.30;;;3.50;;
61477;SDS011;47345;52.334;10.392;2023-06-19T10:18:20;4.50;;;3.50;;
61477;SDS011;47345;52.334;10.392;2023-06-19T10:20:53;3.90;;;3.50;;
61477;SDS011;47345;52.334;10.392;2023-06-19T10:23:24;3.10;;;2.80;;
61477;SDS011;47345;52.334;10.392;2023-06-19T10:25:57;3.50;;;3.20;;
61477;SDS011;47345;52.334;10.392;2023-06-19T10:28:31;3.90;;;3.40;;
61477;SDS011;47345;52.334;10.392;2023-06-19T10:31:03;4.90;;;4.10;;
61477;SDS011;47345;52.334;10.392;2023-06-19T10:33:35;3.80;;;3.40;;
61477;SDS011;47345;52.334;10.392;2023-06-19T10:36:14;4.30;;;3.80;;
61477;SDS011;47345;52.334;10.392;2023-06-19T10:38:51;4.60;;;4.00;;
61477;SDS011;47345;52.334;10.392;2023-06-19T10:41:35;6.10;;;5.00;;
61477;SDS011;47345;52.334;10.392;2023-06-19T10:44:08;6.10;;;3.40;;
61477;SDS011;47345;52.334;10.392;2023-06-19T10:46:40;4.20;;;3.50;;
61477;SDS011;47345;52.334;10.392;2023-06-19T10:49:11;4.40;;;3.90;;
61477;SDS011;47345;52.334;10.392;2023-06-19T10:51:42;4.40;;;3.90;;
61477;SDS011;47345;52.334;10.392;2023-06-19T10:54:13;4.60;;;3.90;;
61477;SDS011;47345;52.334;10.392;2023-06-19T10:56:43;6.30;;;4.10;;
61477;SDS011;47345;52.334;10.392;2023-06-19T10:59:17;13.60;;;4.40;;
61477;SDS011;47345;52.334;10.392;2023-06-19T11:01:48;4.70;;;4.20;;
61477;SDS011;47345;52.334;10.392;2023-06-19T11:04:19;4.50;;;4.00;;
61477;SDS011;47345;52.334;10.392;2023-06-19T11:06:51;6.30;;;5.40;;
61477;SDS011;47345;52.334;10.392;2023-06-19T11:09:22;4.90;;;4.20;;
61477;SDS011;47345;52.334;10.392;2023-06-19T11:11:53;4.50;;;3.90;;
61477;SDS011;47345;52.334;10.392;2023-06-19T11:14:28;4.60;;;3.80;;
61477;SDS011;47345;52.334;10.392;2023-06-19T11:16:59;4.10;;;3.70;;
61477;SDS011;47345;52.334;10.392;2023-06-19T11:19:30;4.40;;;3.90;;
61477;SDS011;47345;52.334;10.392;2023-06-19T11:22:01;4.50;;;4.00;;
61477;SDS011;47345;52.334;10.392;2023-06-19T11:24:33;4.20;;;3.80;;
61477;SDS011;47345;52.334;10.392;2023-06-19T11:27:04;3.90;;;3.50;;
61477;SDS011;47345;52.334;10.392;2023-06-19T11:29:45;4.80;;;4.00;;
61477;SDS011;47345;52.334;10.392;2023-06-19T11:32:16;4.30;;;3.90;;
61477;SDS011;47345;52.334;10.392;2023-06-19T11:34:50;4.00;;;3.60;;
61477;SDS011;47345;52.334;10.392;2023-06-19T11:37:24;4.10;;;3.60;;
61477;SDS011;47345;52.334;10.392;2023-06-19T11:39:58;4.80;;;3.90;;
61477;SDS011;47345;52.334;10.392;2023-06-19T11:42:32;5.90;;;4.00;;
61477;SDS011;47345;52.334;10.392;2023-06-19T11:45:12;3.80;;;3.30;;
61477;SDS011;47345;52.334;10.392;2023-06-19T11:47:44;4.30;;;3.50;;
61477;SDS011;47345;52.334;10.392;2023-06-19T11:50:16;4.60;;;4.00;;
61477;SDS011;47345;52.334;10.392;2023-06-19T11:52:52;4.60;;;3.20;;
61477;SDS011;47345;52.334;10.392;2023-06-19T11:55:25;4.60;;;3.40;;
61477;SDS011;47345;52.334;10.392;2023-06-19T11:57:56;3.60;;;3.30;;
61477;SDS011;47345;52.334;10.392;2023-06-19T12:00:27;4.80;;;3.80;;
61477;SDS011;47345;52.334;10.392;2023-06-19T12:02:58;4.10;;;3.40;;
61477;SDS011;47345;52.334;10.392;2023-06-19T12:05:30;3.70;;;3.40;;
61477;SDS011;47345;52.334;10.392;2023-06-19T12:08:01;5.40;;;3.90;;
61477;SDS011;47345;52.334;10.392;2023-06-19T12:10:32;5.30;;;3.60;;
61477;SDS011;47345;52.334;10.392;2023-06-19T12:13:03;5.10;;;3.60;;
61477;SDS011;47345;52.334;10.392;2023-06-19T12:15:33;4.30;;;3.50;;
61477;SDS011;47345;52.334;10.392;2023-06-19T12:18:05;4.80;;;3.50;;
61477;SDS011;47345;52.334;10.392;2023-06-19T12:20:38;3.60;;;3.30;;
61477;SDS011;47345;52.334;10.392;2023-06-19T12:23:09;4.70;;;3.80;;
61477;SDS011;47345;52.334;10.392;2023-06-19T12:25:40;5.80;;;4.10;;
61477;SDS011;47345;52.334;10.392;2023-06-19T12:28:11;4.90;;;4.00;;
61477;SDS011;47345;52.334;10.392;2023-06-19T12:30:46;3.90;;;3.50;;
61477;SDS011;47345;52.334;10.392;2023-06-19T12:33:19;4.30;;;3.40;;
61477;SDS011;47345;52.334;10.392;2023-06-19T12:35:50;3.70;;;3.40;;
61477;SDS011;47345;52.334;10.392;2023-06-19T12:38:21;5.00;;;3.40;;
61477;SDS011;47345;52.334;10.392;2023-06-19T12:40:52;3.40;;;3.20;;
61477;SDS011;47345;52.334;10.392;2023-06-19T12:43:23;4.40;;;3.40;;
61477;SDS011;47345;52.334;10.392;2023-06-19T12:45:54;4.30;;;3.80;;
61477;SDS011;47345;52.334;10.392;2023-06-19T12:48:24;3.60;;;3.10;;
61477;SDS011;47345;52.334;10.392;2023-06-19T12:50:55;4.00;;;3.30;;
61477;SDS011;47345;52.334;10.392;2023-06-19T12:53:26;4.40;;;3.20;;
61477;SDS011;47345;52.334;10.392;2023-06-19T12:55:58;5.20;;;3.20;;
61477;SDS011;47345;52.334;10.392;2023-06-19T12:58:34;3.20;;;2.90;;
61477;SDS011;47345;52.334;10.392;2023-06-19T13:01:05;6.00;;;3.30;;
61477;SDS011;47345;52.334;10.392;2023-06-19T13:03:36;2.90;;;2.60;;
61477;SDS011;47345;52.334;10.392;2023-06-19T13:06:07;4.30;;;3.00;;
61477;SDS011;47345;52.334;10.392;2023-06-19T13:08:38;3.20;;;2.90;;
61477;SDS011;47345;52.334;10.392;2023-06-19T13:11:09;3.50;;;2.90;;
61477;SDS011;47345;52.334;10.392;2023-06-19T13:13:40;3.70;;;3.10;;
61477;SDS011;47345;52.334;10.392;2023-06-19T13:16:11;3.40;;;3.10;;
61477;SDS011;47345;52.334;10.392;2023-06-19T13:18:44;5.20;;;2.80;;
61477;SDS011;47345;52.334;10.392;2023-06-19T13:21:15;3.60;;;3.30;;
61477;SDS011;47345;52.334;10.392;2023-06-19T13:23:46;4.50;;;3.00;;
61477;SDS011;47345;52.334;10.392;2023-06-19T13:26:17;3.20;;;2.90;;
61477;SDS011;47345;52.334;10.392;2023-06-19T13:28:48;3.50;;;2.80;;
61477;SDS011;47345;52.334;10.392;2023-06-19T13:31:19;3.00;;;2.70;;
61477;SDS011;47345;52.334;10.392;2023-06-19T13:33:50;3.70;;;3.20;;
61477;SDS011;47345;52.334;10.392;2023-06-19T13:36:22;3.30;;;3.00;;
61477;SDS011;47345;52.334;10.392;2023-06-19T13:38:54;3.30;;;3.00;;
61477;SDS011;47345;52.334;10.392;2023-06-19T13:41:25;3.60;;;2.60;;
61477;SDS011;47345;52.334;10.392;2023-06-19T13:43:58;4.00;;;2.90;;
61477;SDS011;47345;52.334;10.392;2023-06-19T13:46:30;3.30;;;2.60;;
61477;SDS011;47345;52.334;10.392;2023-06-19T13:49:01;4.90;;;2.30;;
61477;SDS011;47345;52.334;10.392;2023-06-19T13:51:32;4.10;;;1.90;;
61477;SDS011;47345;52.334;10.392;2023-06-19T13:54:03;2.40;;;2.20;;
61477;SDS011;47345;52.334;10.392;2023-06-19T13:56:34;2.40;;;2.10;;
61477;SDS011;47345;52.334;10.392;2023-06-19T13:59:06;2.30;;;2.10;;
61477;SDS011;47345;52.334;10.392;2023-06-19T14:01:36;2.00;;;1.90;;
61477;SDS011;47345;52.334;10.392;2023-06-19T14:04:09;2.30;;;1.90;;
61477;SDS011;47345;52.334;10.392;2023-06-19T14:06:39;2.40;;;2.10;;
61477;SDS011;47345;52.334;10.392;2023-06-19T14:09:11;3.00;;;2.10;;
61477;SDS011;47345;52.334;10.392;2023-06-19T14:11:42;3.10;;;2.00;;
61477;SDS011;47345;52.334;10.392;2023-06-19T14:14:13;2.70;;;2.30;;
61477;SDS011;47345;52.334;10.392;2023-06-19T14:16:44;2.50;;;2.20;;
61477;SDS011;47345;52.334;10.392;2023-06-19T14:19:14;2.70;;;2.10;;
61477;SDS011;47345;52.334;10.392;2023-06-19T14:21:45;2.30;;;2.10;;
61477;SDS011;47345;52.334;10.392;2023-06-19T14:24:16;2.80;;;2.00;;
61477;SDS011;47345;52.334;10.392;2023-06-19T14:26:49;2.60;;;2.30;;
61477;SDS011;47345;52.334;10.392;2023-06-19T14:29:19;2.50;;;2.30;;
61477;SDS011;47345;52.334;10.392;2023-06-19T14:31:51;2.50;;;2.30;;
61477;SDS011;47345;52.334;10.392;2023-06-19T14:34:22;4.50;;;2.60;;
61477;SDS011;47345;52.334;10.392;2023-06-19T14:36:54;5.70;;;2.10;;
61477;SDS011;47345;52.334;10.392;2023-06-19T14:39:27;7.40;;;2.60;;
61477;SDS011;47345;52.334;10.392;2023-06-19T14:42:00;3.10;;;2.50;;
61477;SDS011;47345;52.334;10.392;2023-06-19T14:44:33;3.00;;;2.60;;
61477;SDS011;47345;52.334;10.392;2023-06-19T14:47:07;3.30;;;2.70;;
61477;SDS011;47345;52.334;10.392;2023-06-19T14:49:39;3.70;;;2.50;;
61477;SDS011;47345;52.334;10.392;2023-06-19T14:52:11;2.60;;;2.30;;
61477;SDS011;47345;52.334;10.392;2023-06-19T14:54:44;3.10;;;2.60;;
61477;SDS011;47345;52.334;10.392;2023-06-19T14:57:17;3.00;;;2.40;;
61477;SDS011;47345;52.334;10.392;2023-06-19T14:59:50;2.70;;;2.50;;